Novo Machado, Brazil
Current Conditions -  °F | °C
As of 7:00 PM on Friday 28 Nov 2014 (Local Time) from SGEN Reporting Station
Few Clouds Few Clouds  
Wind Chill: 91°   Ceiling: Unl
Heat Index: 92°   Visibility: 6mi
Dew Point: 63°   Wind: 6mph
Humidity: 38%   Direction: 110°ESE
Pressure: 29.8"   Gusts: NA
Location:  27.57°S, 54.51°W
Report Text: SGEN 282100Z 11005KT 9999 FEW040 33/17 Q1009
Loading
Personal Weather Stations






























Interactive Weather Map New forecast layout! Learn more

10-Day Weather Forecast

Advertisements
Track Severe Weather on mobile